Time;durP1;ratioP1;P1;durP2;ratioP2;P2;SDS_P1;SDS_P2;PMS_P1;PMS_P2;Temp;Humidity;BMP_temperature;BMP_pressure;BME280_temperature;BME280_humidity;BME280_pressure;Samples;Min_cycle;Max_cycle;Signal;HPM_P1;HPM_P2
2021/04/06 00:00:24;;;;;;;;;;;;;;;22.08;27.46;97281.84;5103422;28;1416;-76
2021/04/06 00:02:50;;;;;;;;;;;;;;;21.95;27.48;97274.69;5080678;28;1086;-76
2021/04/06 00:05:15;;;;;;;;;;;;;;;21.84;27.74;97275.91;5113380;28;688;-76
2021/04/06 00:07:41;;;;;;;;;;;;;;;21.82;27.79;97272.75;5081294;28;641;-76
2021/04/06 00:10:08;;;;;;;;;;;;;;;21.77;27.84;97259.22;5080426;28;1362;-76
2021/04/06 00:12:34;;;;;;;;;;;;;;;21.68;28.09;97261.19;5079807;28;872;-76
2021/04/06 00:14:59;;;;;;;;;;;;;;;21.63;28.40;97258.97;5079755;28;1935;-76
2021/04/06 00:17:25;;;;;;;;;;;;;;;21.54;28.63;97246.31;5080204;28;1140;-76
2021/04/06 00:19:50;;;;;;;;;;;;;;;21.84;28.22;97253.25;5080181;28;654;-76
2021/04/06 00:22:17;;;;;;;;;;;;;;;22.24;27.51;97246.06;5080720;28;1489;-76
2021/04/06 00:24:43;;;;;;;;;;;;;;;22.59;26.81;97241.72;5079757;28;857;-76
2021/04/06 00:27:12;;;;;;;;;;;;;;;22.28;27.39;97236.16;5080449;28;1370;-76
2021/04/06 00:29:37;;;;;;;;;;;;;;;21.84;27.81;97229.81;5080088;28;818;-76
2021/04/06 00:32:03;;;;;;;;;;;;;;;21.71;27.92;97231.94;5079903;28;1339;-76
2021/04/06 00:34:28;;;;;;;;;;;;;;;21.74;28.12;97220.47;5080012;28;1897;-76
2021/04/06 00:36:54;;;;;;;;;;;;;;;22.30;27.24;97233.63;5080198;28;622;-76
2021/04/06 00:39:30;;;;;;;;;;;;;;;22.60;26.70;97208.50;5080158;28;742;-76
2021/04/06 00:41:56;;;;;;;;;;;;;;;22.57;26.70;97212.25;5079133;28;1351;-76
2021/04/06 00:44:21;;;;;;;;;;;;;;;22.11;27.41;97195.16;5079649;28;1343;-76
2021/04/06 00:46:47;;;;;;;;;;;;;;;21.84;27.82;97196.63;5079864;28;952;-76
2021/04/06 00:49:12;;;;;;;;;;;;;;;21.89;27.67;97194.44;5079252;28;708;-76
2021/04/06 00:51:39;;;;;;;;;;;;;;;21.77;28.11;97187.63;5079860;28;576;-77
2021/04/06 00:54:06;;;;;;;;;;;;;;;21.65;28.07;97183.63;5079979;28;1536;-76
2021/04/06 00:56:39;;;;;;;;;;;;;;;21.65;28.38;97177.97;5079368;28;1995;-76
2021/04/06 00:59:11;;;;;;;;;;;;;;;21.59;28.38;97174.16;5081184;28;872;-76
2021/04/06 01:01:37;;;;;;;;;;;;;;;21.64;28.29;97165.06;5084037;28;609;-76
2021/04/06 01:04:09;;;;;;;;;;;;;;;21.70;28.09;97157.53;5083281;28;1397;-76
2021/04/06 01:06:53;;;;;;;;;;;;;;;21.69;28.11;97144.66;5083762;28;1505;-76
2021/04/06 01:09:24;;;;;;;;;;;;;;;22.24;27.16;97144.03;5083155;28;680;-76
2021/04/06 01:11:49;;;;;;;;;;;;;;;22.58;26.76;97143.72;5082740;28;1347;-76
2021/04/06 01:14:16;;;;;;;;;;;;;;;22.53;26.85;97137.91;5082253;28;1358;-76
2021/04/06 01:16:41;;;;;;;;;;;;;;;22.03;27.47;97131.53;5083652;28;1996;-76
2021/04/06 01:19:07;;;;;;;;;;;;;;;21.96;27.25;97126.16;5083133;28;668;-76
2021/04/06 01:21:33;;;;;;;;;;;;;;;21.77;27.36;97117.63;5082943;28;682;-76
2021/04/06 01:23:58;;;;;;;;;;;;;;;21.75;27.57;97114.47;5081947;28;1363;-76
2021/04/06 01:26:23;;;;;;;;;;;;;;;21.63;27.93;97112.53;5083277;28;935;-76
2021/04/06 01:28:49;;;;;;;;;;;;;;;21.75;28.04;97119.34;5081948;28;920;-76
2021/04/06 01:31:14;;;;;;;;;;;;;;;21.63;28.33;97106.88;5083638;28;828;-76
2021/04/06 01:33:41;;;;;;;;;;;;;;;22.03;27.88;97106.03;5082585;28;1075;-76
2021/04/06 01:36:07;;;;;;;;;;;;;;;22.54;27.00;97102.66;5083222;28;1906;-76
2021/04/06 01:38:34;;;;;;;;;;;;;;;22.52;26.87;97108.00;5082879;28;658;-76
2021/04/06 01:41:00;;;;;;;;;;;;;;;22.07;27.07;97118.00;5083608;28;842;-76
2021/04/06 01:43:29;;;;;;;;;;;;;;;21.88;27.19;97113.56;5081941;28;1358;-76
2021/04/06 01:46:02;;;;;;;;;;;;;;;21.74;27.86;97117.75;5083346;28;1319;-76
2021/04/06 01:48:28;;;;;;;;;;;;;;;21.73;27.78;97116.19;5082440;28;654;-76
2021/04/06 01:50:54;;;;;;;;;;;;;;;21.72;28.08;97120.28;5083432;28;698;-76
2021/04/06 01:53:20;;;;;;;;;;;;;;;21.55;28.29;97122.56;5082878;28;682;-76
2021/04/06 01:55:46;;;;;;;;;;;;;;;21.54;28.28;97115.34;5082379;28;1972;-76
2021/04/06 01:58:12;;;;;;;;;;;;;;;21.79;28.29;97120.78;5082022;28;996;-76
2021/04/06 02:00:50;;;;;;;;;;;;;;;22.35;27.02;97105.47;5115696;28;945;-76
2021/04/06 02:03:17;;;;;;;;;;;;;;;22.54;26.86;97109.09;5096335;28;1398;-76
2021/04/06 02:05:44;;;;;;;;;;;;;;;22.19;27.42;97105.78;5082045;28;641;-76
2021/04/06 02:08:13;;;;;;;;;;;;;;;21.85;27.64;97096.22;5082255;28;641;-76
2021/04/06 02:10:38;;;;;;;;;;;;;;;21.93;27.44;97098.78;5081536;28;943;-76
2021/04/06 02:13:10;;;;;;;;;;;;;;;21.78;28.45;97096.53;5082099;28;887;-76
2021/04/06 02:15:36;;;;;;;;;;;;;;;22.44;27.33;97089.75;5082070;28;1959;-76
2021/04/06 02:18:01;;;;;;;;;;;;;;;22.65;26.60;97093.66;5082075;28;661;-76
2021/04/06 02:20:27;;;;;;;;;;;;;;;22.02;27.18;97093.13;5082364;28;685;-75
2021/04/06 02:23:02;;;;;;;;;;;;;;;21.94;27.47;97094.69;5082181;28;648;-76
2021/04/06 02:25:27;;;;;;;;;;;;;;;21.86;27.43;97085.69;5081720;28;1362;-76
2021/04/06 02:27:53;;;;;;;;;;;;;;;22.09;27.54;97087.16;5081812;28;932;-76
2021/04/06 02:30:18;;;;;;;;;;;;;;;22.53;26.85;97078.38;5081976;28;921;-76
2021/04/06 02:32:44;;;;;;;;;;;;;;;22.62;26.49;97072.69;5082001;28;840;-76
2021/04/06 02:35:10;;;;;;;;;;;;;;;22.21;26.73;97068.47;5080582;28;1905;-76
2021/04/06 02:37:36;;;;;;;;;;;;;;;22.00;26.98;97061.66;5082118;28;657;-76
2021/04/06 02:40:12;;;;;;;;;;;;;;;22.04;27.21;97050.97;5081484;28;852;-76
2021/04/06 02:42:41;;;;;;;;;;;;;;;21.83;27.90;97052.66;5081703;28;912;-76
2021/04/06 02:45:11;;;;;;;;;;;;;;;21.76;27.84;97053.75;5081111;28;1366;-76
2021/04/06 02:47:39;;;;;;;;;;;;;;;21.71;28.16;97034.56;5067799;28;1319;-76
2021/04/06 02:50:08;;;;;;;;;;;;;;;21.72;27.98;97041.78;5081833;28;686;-76
2021/04/06 02:52:34;;;;;;;;;;;;;;;21.79;27.84;97046.34;5097687;28;645;-76
2021/04/06 02:55:00;;;;;;;;;;;;;;;21.66;28.00;97038.00;5114207;28;1910;-76
2021/04/06 02:57:25;;;;;;;;;;;;;;;22.12;27.57;97032.41;5081295;28;1338;-76
2021/04/06 02:59:51;;;;;;;;;;;;;;;22.66;26.85;97033.63;5079998;28;947;-76
2021/04/06 03:02:16;;;;;;;;;;;;;;;22.47;27.01;97030.03;5082219;28;657;-76
2021/04/06 03:04:42;;;;;;;;;;;;;;;22.05;27.23;97024.19;5081242;28;726;-76
2021/04/06 03:07:16;;;;;;;;;;;;;;;21.87;27.54;97041.19;5082007;28;1196;-76
2021/04/06 03:09:48;;;;;;;;;;;;;;;21.87;27.80;97029.88;5080982;28;839;-76
2021/04/06 03:12:13;;;;;;;;;;;;;;;22.33;27.44;97025.81;5081229;28;838;-76
2021/04/06 03:14:39;;;;;;;;;;;;;;;22.68;26.92;97036.78;5080297;28;1973;-76
2021/04/06 03:17:04;;;;;;;;;;;;;;;22.60;26.56;97035.53;5081052;28;1338;-77
2021/04/06 03:19:30;;;;;;;;;;;;;;;22.10;27.06;97043.41;5081029;28;685;-76
2021/04/06 03:21:56;;;;;;;;;;;;;;;21.83;27.76;97039.28;5080902;28;626;-76
2021/04/06 03:24:21;;;;;;;;;;;;;;;21.76;27.81;97036.78;5081153;28;832;-76
2021/04/06 03:26:47;;;;;;;;;;;;;;;21.88;27.86;97031.44;5081225;28;821;-76
2021/04/06 03:29:13;;;;;;;;;;;;;;;21.68;28.11;97038.31;5080863;28;1292;-76
2021/04/06 03:31:38;;;;;;;;;;;;;;;21.65;28.16;97047.75;5081639;28;1373;-76
2021/04/06 03:34:04;;;;;;;;;;;;;;;21.76;28.19;97053.75;5080956;28;981;-76
2021/04/06 03:36:30;;;;;;;;;;;;;;;21.67;28.13;97053.75;5114230;28;1902;-76
2021/04/06 03:38:56;;;;;;;;;;;;;;;21.61;28.34;97052.78;5080839;28;856;-77
2021/04/06 03:41:25;;;;;;;;;;;;;;;21.49;28.62;97050.84;5081026;28;1327;-76
2021/04/06 03:43:51;;;;;;;;;;;;;;;21.57;28.64;97046.47;5080691;28;848;-76
2021/04/06 03:46:23;;;;;;;;;;;;;;;21.79;28.02;97041.47;5081191;28;677;-76
2021/04/06 03:48:50;;;;;;;;;;;;;;;22.34;27.12;97035.88;5080605;28;647;-76
2021/04/06 03:51:22;;;;;;;;;;;;;;;22.61;26.74;97034.28;5081413;28;714;-76
2021/04/06 03:53:47;;;;;;;;;;;;;;;22.34;26.70;97035.88;5079978;28;1339;-76
2021/04/06 03:56:13;;;;;;;;;;;;;;;22.22;27.03;97039.66;5080755;28;1906;-76
2021/04/06 03:58:57;;;;;;;;;;;;;;;21.92;27.31;97049.06;5080158;28;994;-76
2021/04/06 04:01:22;;;;;;;;;;;;;;;21.70;28.13;97030.13;5080937;28;693;-76
2021/04/06 04:03:51;;;;;;;;;;;;;;;22.26;27.27;97023.28;5080418;28;721;-76
2021/04/06 04:06:24;;;;;;;;;;;;;;;22.67;26.87;97035.19;5080535;28;1181;-76
2021/04/06 04:08:49;;;;;;;;;;;;;;;22.28;26.98;97037.78;5079995;28;1442;-76
2021/04/06 04:11:15;;;;;;;;;;;;;;;22.04;27.13;97034.75;5080502;28;1367;-76
2021/04/06 04:13:40;;;;;;;;;;;;;;;21.94;27.25;97038.03;5079912;28;946;-74
2021/04/06 04:16:09;;;;;;;;;;;;;;;21.82;27.61;97046.22;5080335;28;1975;-75
2021/04/06 04:18:34;;;;;;;;;;;;;;;21.82;27.92;97043.38;5113181;28;685;-75
2021/04/06 04:21:03;;;;;;;;;;;;;;;21.74;27.93;97042.09;5080295;28;658;-76
2021/04/06 04:23:29;;;;;;;;;;;;;;;21.70;28.41;97027.31;5079868;28;1052;-76
2021/04/06 04:25:54;;;;;;;;;;;;;;;21.58;28.27;97023.34;5080686;28;914;-76
2021/04/06 04:28:20;;;;;;;;;;;;;;;21.76;28.30;97028.28;5080152;28;827;-76
2021/04/06 04:30:50;;;;;;;;;;;;;;;21.78;28.10;97022.94;5080399;28;590;-76
2021/04/06 04:33:16;;;;;;;;;;;;;;;21.85;28.02;97033.94;5079954;28;641;-76
2021/04/06 04:35:41;;;;;;;;;;;;;;;21.79;28.12;97024.50;5084115;28;1910;-76
2021/04/06 04:38:07;;;;;;;;;;;;;;;22.09;27.71;97019.16;5083426;28;823;-76
2021/04/06 04:40:32;;;;;;;;;;;;;;;22.42;26.90;97021.38;5084424;28;882;-76
2021/04/06 04:42:58;;;;;;;;;;;;;;;22.70;26.72;97033.47;5083252;28;1047;-76
2021/04/06 04:45:23;;;;;;;;;;;;;;;22.18;27.21;97026.94;5083560;28;1216;-76
2021/04/06 04:47:49;;;;;;;;;;;;;;;21.99;27.17;97026.09;5083555;28;1273;-76
2021/04/06 04:50:14;;;;;;;;;;;;;;;21.95;27.50;97031.13;5083105;28;1189;-74
2021/04/06 04:52:46;;;;;;;;;;;;;;;21.87;27.91;97027.03;5083673;28;686;-77
2021/04/06 04:55:12;;;;;;;;;;;;;;;21.90;28.03;97023.25;5083168;28;1906;-75
2021/04/06 04:57:38;;;;;;;;;;;;;;;21.79;27.92;97027.31;5082430;28;1067;-80
2021/04/06 05:00:04;;;;;;;;;;;;;;;21.80;28.24;97014.72;5082769;28;1074;-72
2021/04/06 05:02:31;;;;;;;;;;;;;;;21.77;28.10;97012.88;5082148;28;1162;-74
2021/04/06 05:04:56;;;;;;;;;;;;;;;21.85;27.82;96999.94;5080554;28;1170;-73
2021/04/06 05:07:22;;;;;;;;;;;;;;;21.85;27.89;96982.97;5082577;28;1111;-73
2021/04/06 05:09:47;;;;;;;;;;;;;;;21.84;28.15;96986.28;5082453;28;717;-74
2021/04/06 05:12:12;;;;;;;;;;;;;;;21.91;28.33;97005.00;5082010;28;674;-71
2021/04/06 05:14:38;;;;;;;;;;;;;;;21.74;28.21;96996.81;5082383;28;1976;-76
2021/04/06 05:17:03;;;;;;;;;;;;;;;21.99;27.98;97003.44;5082017;28;1033;-70
2021/04/06 05:19:29;;;;;;;;;;;;;;;22.58;27.29;97015.38;5081595;28;1169;-77
2021/04/06 05:21:54;;;;;;;;;;;;;;;22.62;26.94;97001.81;5102190;28;1196;-73
2021/04/06 05:24:20;;;;;;;;;;;;;;;22.70;27.21;97005.91;5061677;28;654;-74
2021/04/06 05:26:45;;;;;;;;;;;;;;;22.42;27.28;97007.22;5062214;28;591;-68
2021/04/06 05:29:11;;;;;;;;;;;;;;;22.55;27.55;97007.81;5082115;28;1110;-67
2021/04/06 05:31:36;;;;;;;;;;;;;;;22.91;26.91;97009.81;5082433;28;933;-69
2021/04/06 05:34:01;;;;;;;;;;;;;;;22.84;26.84;97010.88;5085518;28;902;-70
2021/04/06 05:36:27;;;;;;;;;;;;;;;22.80;26.96;97007.44;5110547;28;1893;-69
2021/04/06 05:38:53;;;;;;;;;;;;;;;22.80;26.76;97015.97;5086345;28;1066;-69
2021/04/06 05:41:18;;;;;;;;;;;;;;;22.69;27.14;97010.00;5085492;28;1051;-68
2021/04/06 05:43:45;;;;;;;;;;;;;;;22.84;26.84;97002.38;5086514;28;1011;-69
2021/04/06 05:46:10;;;;;;;;;;;;;;;22.69;26.81;97000.69;5065708;28;1283;-70
2021/04/06 05:48:36;;;;;;;;;;;;;;;22.77;26.98;97001.94;5085273;28;1066;-69
2021/04/06 05:51:02;;;;;;;;;;;;;;;22.76;26.71;97003.22;5085282;28;1067;-68
2021/04/06 05:53:28;;;;;;;;;;;;;;;22.73;27.04;97001.31;5084872;28;1568;-69
2021/04/06 05:55:53;;;;;;;;;;;;;;;22.74;26.87;97000.03;5086666;28;1883;-69
2021/04/06 05:58:18;;;;;;;;;;;;;;;22.58;26.82;96987.00;5085762;28;1071;-68
2021/04/06 06:00:44;;;;;;;;;;;;;;;22.44;26.97;96987.69;5085491;28;1050;-69
2021/04/06 06:03:09;;;;;;;;;;;;;;;22.55;27.03;96982.31;5087426;28;1027;-68
2021/04/06 06:05:35;;;;;;;;;;;;;;;22.49;27.25;96984.22;5087787;28;1110;-70
2021/04/06 06:08:06;;;;;;;;;;;;;;;22.45;26.92;96972.25;5112803;28;1070;-69
2021/04/06 06:10:32;;;;;;;;;;;;;;;22.54;26.84;96964.53;5087726;28;1228;-68
2021/04/06 06:13:13;;;;;;;;;;;;;;;22.60;26.78;96967.50;5089244;28;1027;-67
2021/04/06 06:15:39;;;;;;;;;;;;;;;22.54;26.73;96972.25;5085147;28;1895;-70
2021/04/06 06:18:05;;;;;;;;;;;;;;;22.67;26.25;96955.81;5084533;28;1034;-68
2021/04/06 06:20:39;;;;;;;;;;;;;;;22.61;26.54;96963.38;5084453;28;732;-68
2021/04/06 06:23:21;;;;;;;;;;;;;;;22.62;26.57;96962.13;5066357;28;1035;-67
2021/04/06 06:26:13;;;;;;;;;;;;;;;22.53;26.57;96950.81;5082534;28;976;-68
2021/04/06 06:28:38;;;;;;;;;;;;;;;22.61;26.76;96957.72;5082205;28;2030;-69
2021/04/06 06:31:04;;;;;;;;;;;;;;;22.64;26.47;96953.94;5083751;28;858;-69
2021/04/06 06:33:31;;;;;;;;;;;;;;;22.61;26.49;96952.06;5083598;28;1059;-74
2021/04/06 06:35:56;;;;;;;;;;;;;;;22.26;27.39;96955.28;5081170;28;1957;-71
2021/04/06 06:38:23;;;;;;;;;;;;;;;21.85;27.93;96946.16;5084396;28;1003;-76
2021/04/06 06:40:49;;;;;;;;;;;;;;;21.68;28.23;96947.72;5083935;28;540;-76
2021/04/06 06:43:15;;;;;;;;;;;;;;;22.29;27.69;96951.50;5083574;28;540;-79
2021/04/06 06:45:41;;;;;;;;;;;;;;;22.56;27.37;96955.53;5083625;28;658;-77
2021/04/06 06:48:07;;;;;;;;;;;;;;;22.54;27.27;96947.50;5082646;28;1003;-76
2021/04/06 06:50:44;;;;;;;;;;;;;;;22.53;27.16;96939.47;5107123;28;987;-77
2021/04/06 06:53:09;;;;;;;;;;;;;;;22.56;27.05;96933.63;5069619;28;1023;-76
2021/04/06 06:55:36;;;;;;;;;;;;;;;22.57;27.24;96937.25;5101795;28;1973;-77
2021/04/06 06:58:02;;;;;;;;;;;;;;;22.67;26.73;96926.66;5081639;28;1051;-77
2021/04/06 07:00:28;;;;;;;;;;;;;;;22.59;26.98;96934.75;5088916;28;1043;-77
2021/04/06 07:02:53;;;;;;;;;;;;;;;22.71;26.88;96942.25;5088706;28;1062;-77
2021/04/06 07:05:23;;;;;;;;;;;;;;;22.74;27.02;96929.16;5089156;28;1256;-76
2021/04/06 07:07:55;;;;;;;;;;;;;;;22.84;26.43;96925.00;5089336;28;986;-76
2021/04/06 07:10:22;;;;;;;;;;;;;;;22.00;27.58;96926.47;5087808;28;1114;-76
2021/04/06 07:12:48;;;;;;;;;;;;;;;21.65;27.91;96926.00;5088638;28;1114;-77
2021/04/06 07:15:14;;;;;;;;;;;;;;;22.12;28.06;96941.75;5088147;28;1889;-76
2021/04/06 07:17:41;;;;;;;;;;;;;;;22.52;27.00;96935.06;5088427;28;1161;-77
2021/04/06 07:20:07;;;;;;;;;;;;;;;22.41;27.24;96924.22;5087149;28;1095;-77
2021/04/06 07:22:39;;;;;;;;;;;;;;;22.49;26.74;96922.63;5122148;28;845;-76
2021/04/06 07:25:04;;;;;;;;;;;;;;;22.52;26.70;96926.56;5122247;28;542;-78
2021/04/06 07:27:30;;;;;;;;;;;;;;;22.52;26.83;96913.16;5088846;28;1094;-78
2021/04/06 07:29:55;;;;;;;;;;;;;;;22.61;26.67;96907.47;5087950;28;1094;-77
2021/04/06 07:32:20;;;;;;;;;;;;;;;22.60;26.58;96890.94;5086857;28;1153;-75
2021/04/06 07:34:46;;;;;;;;;;;;;;;22.31;27.11;96900.00;5086877;28;1886;-69
2021/04/06 07:37:11;;;;;;;;;;;;;;;22.33;26.67;96903.94;5121851;28;1237;-70
2021/04/06 07:39:37;;;;;;;;;;;;;;;22.40;26.95;96902.81;5086365;28;534;-73
2021/04/06 07:42:02;;;;;;;;;;;;;;;22.57;26.82;96906.06;5099674;28;698;-70
2021/04/06 07:44:29;;;;;;;;;;;;;;;22.58;26.96;96904.78;5119097;28;540;-69
2021/04/06 07:46:55;;;;;;;;;;;;;;;22.60;26.85;96910.78;5087044;28;1086;-67
2021/04/06 07:49:20;;;;;;;;;;;;;;;22.61;26.90;96901.00;5085319;28;1027;-67
2021/04/06 07:51:46;;;;;;;;;;;;;;;22.65;26.90;96906.53;5085614;28;1106;-70
2021/04/06 07:54:14;;;;;;;;;;;;;;;22.68;27.20;96906.34;5085208;28;1022;-69
2021/04/06 07:56:49;;;;;;;;;;;;;;;22.66;27.35;96903.19;5084448;28;1957;-68
2021/04/06 07:59:19;;;;;;;;;;;;;;;22.60;27.30;96902.28;5081523;28;1058;-70
2021/04/06 08:01:53;;;;;;;;;;;;;;;22.61;27.40;96912.34;5080886;28;1155;-70
2021/04/06 08:04:19;;;;;;;;;;;;;;;22.53;27.47;96911.13;5080562;28;1002;-70
2021/04/06 08:06:48;;;;;;;;;;;;;;;22.48;27.79;96908.94;5080684;28;982;-70
2021/04/06 08:09:33;;;;;;;;;;;;;;;22.56;27.64;96910.94;5083003;28;978;-71
2021/04/06 08:12:02;;;;;;;;;;;;;;;22.43;27.54;96906.75;5084365;28;1081;-70
2021/04/06 08:14:28;;;;;;;;;;;;;;;22.67;27.27;96909.66;5085222;28;942;-70
2021/04/06 08:17:13;;;;;;;;;;;;;;;22.76;27.38;96895.44;5085247;28;1953;-72
2021/04/06 08:19:46;;;;;;;;;;;;;;;23.17;26.72;96902.34;5087580;28;1004;-72
2021/04/06 08:22:21;;;;;;;;;;;;;;;23.04;27.19;96899.72;5085184;28;1133;-70
2021/04/06 08:24:47;;;;;;;;;;;;;;;23.32;27.91;96897.53;5085720;28;1042;-69
2021/04/06 08:27:31;;;;;;;;;;;;;;;23.51;27.04;96897.38;5085889;28;981;-70
2021/04/06 08:30:15;;;;;;;;;;;;;;;23.52;26.43;96898.94;5084212;28;853;-72
2021/04/06 08:32:40;;;;;;;;;;;;;;;23.63;26.54;96890.69;5086401;28;984;-69
2021/04/06 08:35:09;;;;;;;;;;;;;;;23.82;26.88;96886.41;5085709;28;1887;-68
2021/04/06 08:37:38;;;;;;;;;;;;;;;24.02;26.54;96884.97;5085349;28;939;-69
2021/04/06 08:40:05;;;;;;;;;;;;;;;23.81;26.62;96882.00;5085047;28;893;-73
2021/04/06 08:42:30;;;;;;;;;;;;;;;23.78;26.96;96871.63;5083779;28;934;-70
2021/04/06 08:44:56;;;;;;;;;;;;;;;24.18;26.38;96875.97;5086005;28;1205;-72
2021/04/06 08:47:44;;;;;;;;;;;;;;;24.18;26.17;96870.28;5084236;28;970;-72
2021/04/06 08:50:11;;;;;;;;;;;;;;;23.91;26.49;96857.94;5085307;28;1188;-67
2021/04/06 08:52:36;;;;;;;;;;;;;;;23.92;26.41;96853.81;5084003;28;975;-68
2021/04/06 08:55:20;;;;;;;;;;;;;;;23.53;27.18;96843.75;5083059;28;1901;-70
2021/04/06 08:57:45;;;;;;;;;;;;;;;23.65;26.78;96851.22;5083214;28;1343;-69
2021/04/06 09:00:12;;;;;;;;;;;;;;;23.78;26.90;96848.13;5082525;28;1072;-68
2021/04/06 09:02:38;;;;;;;;;;;;;;;23.77;26.63;96838.03;5084656;28;788;-71
2021/04/06 09:05:03;;;;;;;;;;;;;;;23.70;27.06;96836.34;5083194;28;967;-70
2021/04/06 09:07:30;;;;;;;;;;;;;;;24.03;26.34;96835.41;5082499;28;1244;-70
2021/04/06 09:10:06;;;;;;;;;;;;;;;23.87;26.71;96840.28;5084765;28;970;-74
2021/04/06 09:12:31;;;;;;;;;;;;;;;23.93;26.54;96840.38;5084271;28;876;-72
2021/04/06 09:14:57;;;;;;;;;;;;;;;24.29;26.33;96836.34;5083534;28;1965;-74
2021/04/06 09:17:32;;;;;;;;;;;;;;;24.36;25.74;96836.00;5084102;28;989;-68
2021/04/06 09:19:58;;;;;;;;;;;;;;;23.92;26.52;96825.41;5082325;28;773;-72
2021/04/06 09:22:24;;;;;;;;;;;;;;;23.84;26.78;96824.22;5082357;28;816;-68
2021/04/06 09:24:49;;;;;;;;;;;;;;;23.68;26.88;96819.03;5083049;28;958;-69
2021/04/06 09:27:15;;;;;;;;;;;;;;;23.86;26.35;96824.53;5085194;28;919;-69
2021/04/06 09:29:45;;;;;;;;;;;;;;;23.99;26.52;96814.94;5084832;28;963;-70
2021/04/06 09:32:15;;;;;;;;;;;;;;;23.91;26.75;96801.09;5085402;28;958;-71
2021/04/06 09:34:41;;;;;;;;;;;;;;;24.11;26.79;96813.84;5084260;28;917;-72
2021/04/06 09:37:08;;;;;;;;;;;;;;;24.29;26.24;96807.94;5082411;28;1123;-77
2021/04/06 09:39:33;;;;;;;;;;;;;;;24.48;26.55;96807.75;5083052;28;1019;-71
2021/04/06 09:41:59;;;;;;;;;;;;;;;24.46;25.74;96787.56;5084681;28;934;-70
2021/04/06 09:44:26;;;;;;;;;;;;;;;24.09;26.55;96788.00;5083750;28;927;-68
2021/04/06 09:46:52;;;;;;;;;;;;;;;24.20;25.90;96764.66;5083011;28;1119;-68
2021/04/06 09:49:18;;;;;;;;;;;;;;;24.15;26.87;96781.13;5085376;28;986;-69
2021/04/06 09:51:50;;;;;;;;;;;;;;;23.87;26.81;96780.63;5084007;28;955;-67
2021/04/06 09:54:22;;;;;;;;;;;;;;;23.64;27.72;96775.84;5084223;28;931;-67
2021/04/06 09:56:48;;;;;;;;;;;;;;;23.47;27.33;96763.38;5083938;28;1919;-66
2021/04/06 09:59:13;;;;;;;;;;;;;;;23.27;28.06;96753.44;5081073;28;942;-67
2021/04/06 10:01:39;;;;;;;;;;;;;;;23.75;27.63;96744.00;5082314;28;943;-67
2021/04/06 10:04:04;;;;;;;;;;;;;;;24.20;26.75;96731.31;5083609;28;966;-67
2021/04/06 10:06:34;;;;;;;;;;;;;;;24.32;26.47;96738.72;5081352;28;1169;-68
2021/04/06 10:09:01;;;;;;;;;;;;;;;24.29;26.31;96734.03;5083166;28;895;-68
2021/04/06 10:11:26;;;;;;;;;;;;;;;24.21;26.56;96732.88;5081371;28;1334;-67
2021/04/06 10:13:52;;;;;;;;;;;;;;;23.62;27.10;96727.22;5082072;28;947;-66
2021/04/06 10:16:18;;;;;;;;;;;;;;;23.33;27.69;96723.09;5081444;28;1959;-67
2021/04/06 10:18:45;;;;;;;;;;;;;;;23.35;27.39;96720.56;5081021;28;905;-65
2021/04/06 10:21:21;;;;;;;;;;;;;;;23.23;27.55;96718.78;5081536;28;927;-67
2021/04/06 10:23:46;;;;;;;;;;;;;;;23.02;27.82;96715.03;5082272;28;919;-67
2021/04/06 10:26:18;;;;;;;;;;;;;;;23.09;27.53;96731.66;5080958;28;871;-67
2021/04/06 10:28:44;;;;;;;;;;;;;;;23.21;27.26;96727.00;5081549;28;936;-67
2021/04/06 10:31:09;;;;;;;;;;;;;;;22.98;27.68;96719.31;5081423;28;911;-67
2021/04/06 10:33:35;;;;;;;;;;;;;;;23.16;27.74;96719.19;5081491;28;1110;-68
2021/04/06 10:36:03;;;;;;;;;;;;;;;23.31;27.40;96708.63;5080637;28;1918;-67
2021/04/06 10:38:35;;;;;;;;;;;;;;;23.11;27.63;96700.00;5080487;28;879;-68
2021/04/06 10:41:03;;;;;;;;;;;;;;;23.16;27.74;96712.69;5080660;28;844;-67
2021/04/06 10:43:29;;;;;;;;;;;;;;;23.12;27.59;96712.91;5079842;28;1188;-68
2021/04/06 10:46:02;;;;;;;;;;;;;;;23.29;27.19;96699.81;5080926;28;816;-68
2021/04/06 10:48:28;;;;;;;;;;;;;;;23.30;27.36;96715.56;5081422;28;1021;-74
2021/04/06 10:50:58;;;;;;;;;;;;;;;22.94;27.81;96719.50;5080214;28;1125;-74
2021/04/06 10:53:31;;;;;;;;;;;;;;;22.86;28.09;96707.72;5080134;28;970;-73
2021/04/06 10:55:56;;;;;;;;;;;;;;;22.72;28.12;96708.47;5085085;28;1898;-74
2021/04/06 10:58:26;;;;;;;;;;;;;;;22.62;27.84;96709.78;5081445;28;1002;-75
2021/04/06 11:00:55;;;;;;;;;;;;;;;22.48;28.04;96707.66;5082797;28;943;-73
2021/04/06 11:03:21;;;;;;;;;;;;;;;22.50;28.20;96713.66;5083999;28;1060;-75
2021/04/06 11:05:46;;;;;;;;;;;;;;;22.55;27.99;96719.44;5089328;28;768;-68
2021/04/06 11:08:22;;;;;;;;;;;;;;;22.84;28.02;96713.09;5088396;28;757;-72
2021/04/06 11:10:51;;;;;;;;;;;;;;;22.74;27.80;96711.63;5089448;28;651;-73
2021/04/06 11:13:16;;;;;;;;;;;;;;;22.72;28.02;96714.13;5089158;28;668;-76
2021/04/06 11:15:42;;;;;;;;;;;;;;;22.46;28.25;96710.22;5089524;28;1913;-76
2021/04/06 11:18:08;;;;;;;;;;;;;;;22.29;28.06;96690.81;5089477;28;641;-77
2021/04/06 11:20:33;;;;;;;;;;;;;;;22.18;28.47;96686.94;5089314;28;876;-77
2021/04/06 11:22:59;;;;;;;;;;;;;;;22.25;28.26;96681.69;5089180;28;761;-77
2021/04/06 11:25:24;;;;;;;;;;;;;;;22.10;28.22;96687.28;5089490;28;844;-77
2021/04/06 11:27:52;;;;;;;;;;;;;;;22.14;28.34;96681.44;5089556;28;602;-77
2021/04/06 11:30:18;;;;;;;;;;;;;;;22.12;28.05;96672.63;5089078;28;1063;-77
2021/04/06 11:32:43;;;;;;;;;;;;;;;22.17;27.97;96663.47;5089100;28;1193;-77
2021/04/06 11:35:09;;;;;;;;;;;;;;;22.05;28.17;96685.06;5088278;28;1886;-77
2021/04/06 11:37:34;;;;;;;;;;;;;;;22.18;27.96;96665.06;5086061;28;1132;-77
2021/04/06 11:40:00;;;;;;;;;;;;;;;22.16;27.82;96667.56;5088765;28;1244;-78
2021/04/06 11:42:25;;;;;;;;;;;;;;;21.95;28.25;96674.25;5088557;28;1087;-78
2021/04/06 11:44:51;;;;;;;;;;;;;;;21.87;27.99;96661.72;5087437;28;1059;-78
2021/04/06 11:47:16;;;;;;;;;;;;;;;21.91;27.80;96651.00;5088967;28;1130;-77
2021/04/06 11:49:42;;;;;;;;;;;;;;;21.95;27.90;96651.59;5088290;28;1181;-77
2021/04/06 11:52:08;;;;;;;;;;;;;;;21.85;28.25;96648.81;5088646;28;1319;-77
2021/04/06 11:54:33;;;;;;;;;;;;;;;21.98;27.57;96640.13;5088668;28;1138;-77
2021/04/06 11:56:59;;;;;;;;;;;;;;;21.98;27.50;96620.28;5088743;28;1955;-78
2021/04/06 11:59:24;;;;;;;;;;;;;;;21.95;27.63;96609.13;5088484;28;1209;-77
2021/04/06 12:01:50;;;;;;;;;;;;;;;21.92;27.66;96604.44;5087888;28;1267;-77
2021/04/06 12:04:15;;;;;;;;;;;;;;;21.73;27.84;96584.72;5088040;28;1098;-78
2021/04/06 12:06:41;;;;;;;;;;;;;;;21.77;27.90;96590.22;5088530;28;1133;-78
2021/04/06 12:09:06;;;;;;;;;;;;;;;21.77;27.81;96574.00;5087176;28;1078;-77
2021/04/06 12:11:32;;;;;;;;;;;;;;;21.70;27.78;96585.66;5088719;28;1209;-77
2021/04/06 12:13:57;;;;;;;;;;;;;;;21.64;27.87;96559.28;5088339;28;1173;-78
2021/04/06 12:16:23;;;;;;;;;;;;;;;21.72;28.01;96543.50;5088674;28;1887;-77
2021/04/06 12:18:48;;;;;;;;;;;;;;;21.67;27.56;96517.91;5087894;28;1189;-77
2021/04/06 12:21:14;;;;;;;;;;;;;;;21.75;27.48;96485.91;5088576;28;956;-77
2021/04/06 12:23:40;;;;;;;;;;;;;;;21.73;27.44;96471.47;5088685;28;868;-76
2021/04/06 12:26:06;;;;;;;;;;;;;;;21.71;27.52;96478.88;5088945;28;580;-77
2021/04/06 12:28:32;;;;;;;;;;;;;;;21.63;27.70;96518.09;5088621;28;633;-77
2021/04/06 12:30:57;;;;;;;;;;;;;;;21.58;28.06;96527.25;5087948;28;608;-77
2021/04/06 12:33:23;;;;;;;;;;;;;;;21.67;27.79;96532.84;5088338;28;830;-77
2021/04/06 12:35:49;;;;;;;;;;;;;;;21.69;27.74;96538.81;5088305;28;1894;-76
2021/04/06 12:38:14;;;;;;;;;;;;;;;21.67;28.08;96540.56;5088472;28;927;-77
2021/04/06 12:40:40;;;;;;;;;;;;;;;21.77;28.23;96557.00;5088734;28;645;-76
2021/04/06 12:43:05;;;;;;;;;;;;;;;21.60;28.71;96581.31;5088503;28;646;-76
2021/04/06 12:45:31;;;;;;;;;;;;;;;21.71;28.35;96598.56;5088738;28;579;-77
2021/04/06 12:47:56;;;;;;;;;;;;;;;21.59;28.79;96597.50;5088472;28;883;-77
2021/04/06 12:50:23;;;;;;;;;;;;;;;21.78;28.41;96601.03;5088247;28;900;-77
2021/04/06 12:52:49;;;;;;;;;;;;;;;21.65;28.71;96600.47;5088455;28;822;-77
2021/04/06 12:55:14;;;;;;;;;;;;;;;21.81;28.46;96591.59;5090157;28;1886;-77
2021/04/06 12:57:40;;;;;;;;;;;;;;;21.70;28.75;96585.66;5092037;28;589;-77
2021/04/06 13:00:06;;;;;;;;;;;;;;;21.83;28.45;96563.56;5092065;28;559;-77
2021/04/06 13:02:33;;;;;;;;;;;;;;;21.68;28.83;96559.88;5090922;28;968;-77